createdAt,value
2023-05-22T00:00:26.685Z,13.15
2023-05-22T00:03:24.480Z,13.15
2023-05-22T00:06:12.181Z,13.16
2023-05-22T00:08:58.625Z,13.17
2023-05-22T00:11:45.165Z,13.12
2023-05-22T00:14:31.669Z,13.08
2023-05-22T00:17:18.609Z,13.01
2023-05-22T00:20:10.770Z,12.96
2023-05-22T00:22:58.039Z,12.89
2023-05-22T00:25:44.623Z,12.88
2023-05-22T00:28:31.213Z,12.90
2023-05-22T00:31:17.848Z,12.92
2023-05-22T00:34:04.254Z,12.95
2023-05-22T00:36:50.931Z,12.98
2023-05-22T00:39:38.383Z,13.01
2023-05-22T00:42:24.641Z,12.95
2023-05-22T00:45:12.067Z,12.94
2023-05-22T00:47:58.404Z,12.98
2023-05-22T00:50:45.398Z,12.96
2023-05-22T00:53:31.802Z,12.94
2023-05-22T00:56:19.507Z,12.95
2023-05-22T00:59:06.172Z,12.98
2023-05-22T01:01:52.798Z,13.00
2023-05-22T01:04:39.632Z,12.98
2023-05-22T01:07:26.560Z,12.92
2023-05-22T01:10:13.079Z,12.88
2023-05-22T01:13:26.312Z,12.79
2023-05-22T01:16:30.118Z,12.71
2023-05-22T01:19:35.867Z,12.61
2023-05-22T01:22:41.026Z,12.57
2023-05-22T01:25:55.158Z,12.64
2023-05-22T01:29:03.913Z,12.74
2023-05-22T01:31:52.856Z,12.84
2023-05-22T01:34:41.574Z,12.90
2023-05-22T01:37:28.734Z,12.92
2023-05-22T01:40:16.887Z,12.93
2023-05-22T01:43:03.446Z,12.92
2023-05-22T01:45:50.433Z,12.91
2023-05-22T01:48:36.828Z,12.87
2023-05-22T01:52:10.104Z,12.81
2023-05-22T01:55:09.733Z,12.78
2023-05-22T01:58:19.276Z,12.72
2023-05-22T02:01:10.224Z,12.71
2023-05-22T02:03:58.961Z,12.73
2023-05-22T02:06:46.807Z,12.70
2023-05-22T02:09:35.400Z,12.66
2023-05-22T02:12:23.363Z,12.62
2023-05-22T02:15:10.149Z,12.62
2023-05-22T02:17:59.956Z,12.60
2023-05-22T02:20:46.764Z,12.56
2023-05-22T02:23:33.168Z,12.51
2023-05-22T02:26:19.676Z,12.46
2023-05-22T02:29:06.344Z,12.40
2023-05-22T02:31:54.755Z,12.38
2023-05-22T02:34:42.203Z,12.40
2023-05-22T02:37:29.168Z,12.37
2023-05-22T02:40:16.056Z,12.41
2023-05-22T02:43:02.397Z,12.40
2023-05-22T02:45:49.194Z,12.42
2023-05-22T02:48:37.030Z,12.33
2023-05-22T02:51:23.341Z,12.25
2023-05-22T02:54:10.038Z,12.13
2023-05-22T02:56:56.968Z,12.06
2023-05-22T02:59:44.418Z,12.08
2023-05-22T03:02:32.715Z,12.09
2023-05-22T03:05:19.649Z,12.12
2023-05-22T03:08:06.750Z,12.15
2023-05-22T03:10:53.272Z,12.20
2023-05-22T03:13:39.670Z,12.27
2023-05-22T03:16:27.049Z,12.34
2023-05-22T03:19:16.410Z,12.34
2023-05-22T03:22:03.126Z,12.27
2023-05-22T03:24:49.787Z,12.27
2023-05-22T03:27:36.429Z,12.34
2023-05-22T03:30:23.360Z,12.43
2023-05-22T03:33:18.864Z,12.51
2023-05-22T03:36:06.193Z,12.58
2023-05-22T03:38:53.003Z,12.67
2023-05-22T03:41:39.122Z,12.76
2023-05-22T03:44:25.529Z,12.83
2023-05-22T03:47:13.147Z,12.88
2023-05-22T03:49:59.517Z,12.92
2023-05-22T03:52:47.898Z,12.95
2023-05-22T03:55:34.713Z,13.05
2023-05-22T03:58:25.494Z,13.19
2023-05-22T04:01:13.754Z,13.36
2023-05-22T04:04:00.914Z,13.50
2023-05-22T04:06:47.365Z,13.70
2023-05-22T04:09:35.739Z,13.90
2023-05-22T04:12:22.309Z,14.11
2023-05-22T04:15:09.468Z,14.30
2023-05-22T04:17:55.673Z,14.48
2023-05-22T04:20:42.938Z,14.64
2023-05-22T04:23:29.459Z,14.77
2023-05-22T04:26:18.111Z,14.95
2023-05-22T04:29:06.545Z,15.12
2023-05-22T04:31:55.465Z,15.24
2023-05-22T04:34:42.302Z,15.34
2023-05-22T04:37:31.890Z,15.45
2023-05-22T04:40:18.833Z,15.50
2023-05-22T04:43:07.757Z,15.57
2023-05-22T04:45:54.991Z,15.66
2023-05-22T04:48:42.058Z,15.73
2023-05-22T04:51:31.088Z,15.82
2023-05-22T04:54:17.713Z,15.91
2023-05-22T04:57:05.042Z,15.99
2023-05-22T04:59:54.698Z,16.07
2023-05-22T05:02:41.973Z,16.20
2023-05-22T05:05:28.474Z,16.31
2023-05-22T05:08:16.838Z,16.45
2023-05-22T05:11:03.504Z,16.55
2023-05-22T05:13:49.974Z,16.67
2023-05-22T05:16:36.667Z,16.78
2023-05-22T05:19:23.632Z,16.89
2023-05-22T05:22:10.495Z,17.00
2023-05-22T05:24:57.697Z,17.10
2023-05-22T05:27:44.623Z,17.19
2023-05-22T05:30:32.112Z,17.25
2023-05-22T05:33:41.938Z,17.35
2023-05-22T05:36:34.806Z,17.45
2023-05-22T05:39:21.290Z,17.55
2023-05-22T05:42:08.081Z,17.66
2023-05-22T05:44:54.973Z,17.78
2023-05-22T05:47:43.912Z,17.88
2023-05-22T05:50:30.363Z,17.98
2023-05-22T05:53:16.873Z,18.09
2023-05-22T05:56:09.288Z,18.24
2023-05-22T05:58:57.769Z,18.42
2023-05-22T06:02:10.180Z,18.61
2023-05-22T06:04:56.860Z,18.80
2023-05-22T06:07:43.770Z,19.02
2023-05-22T06:10:31.156Z,19.27
2023-05-22T06:13:22.507Z,19.46
2023-05-22T06:16:08.978Z,19.67
2023-05-22T06:18:57.309Z,19.90
2023-05-22T06:21:43.954Z,20.08
2023-05-22T06:24:32.514Z,20.26
2023-05-22T06:27:24.199Z,20.41
2023-05-22T06:30:11.142Z,20.56
2023-05-22T06:32:58.702Z,20.72
2023-05-22T06:35:45.493Z,20.89
2023-05-22T06:38:32.675Z,20.97
2023-05-22T06:41:19.208Z,21.01
2023-05-22T06:44:06.573Z,21.08
2023-05-22T06:46:57.404Z,21.24
2023-05-22T06:49:44.699Z,21.37
2023-05-22T06:52:32.103Z,21.53
2023-05-22T06:55:19.053Z,21.70
2023-05-22T06:58:20.411Z,21.88
2023-05-22T07:01:07.883Z,22.01
2023-05-22T07:04:05.068Z,22.15
2023-05-22T07:06:56.545Z,22.26
2023-05-22T07:09:43.251Z,22.35
2023-05-22T07:12:29.777Z,22.35
2023-05-22T07:15:16.975Z,22.33
2023-05-22T07:18:09.746Z,22.45
2023-05-22T07:20:58.815Z,22.52
2023-05-22T07:23:45.546Z,22.58
2023-05-22T07:26:32.233Z,22.63
2023-05-22T07:29:23.685Z,22.79
2023-05-22T07:32:12.698Z,23.03
2023-05-22T07:34:59.279Z,23.23
2023-05-22T07:37:46.291Z,23.35
2023-05-22T07:40:32.975Z,23.40
2023-05-22T07:43:19.649Z,23.57
2023-05-22T07:46:06.489Z,23.71
2023-05-22T07:48:56.667Z,23.86
2023-05-22T07:51:43.279Z,24.01
2023-05-22T07:54:30.662Z,24.25
2023-05-22T07:57:17.798Z,24.40
2023-05-22T08:00:13.686Z,24.47
2023-05-22T08:03:00.824Z,24.58
2023-05-22T08:05:47.500Z,24.62
2023-05-22T08:08:34.693Z,24.70
2023-05-22T08:11:21.656Z,24.77
2023-05-22T08:14:09.056Z,24.82
2023-05-22T08:16:57.159Z,24.85
2023-05-22T08:19:43.851Z,24.92
2023-05-22T08:22:31.372Z,24.99
2023-05-22T08:25:17.979Z,25.05
2023-05-22T08:28:04.594Z,25.18
2023-05-22T08:30:52.020Z,25.34
2023-05-22T08:33:38.822Z,25.49
2023-05-22T08:36:25.501Z,25.56
2023-05-22T08:39:12.243Z,25.75
2023-05-22T08:41:59.448Z,25.92
2023-05-22T08:44:47.621Z,25.99
2023-05-22T08:47:36.831Z,26.06
2023-05-22T08:50:24.693Z,26.10
2023-05-22T08:53:15.673Z,26.19
2023-05-22T08:56:06.883Z,26.31
2023-05-22T08:58:53.859Z,26.39
2023-05-22T09:01:40.811Z,26.53
2023-05-22T09:04:28.654Z,26.62
2023-05-22T09:07:15.376Z,26.83
2023-05-22T09:10:05.292Z,27.07
2023-05-22T09:13:01.907Z,27.26
2023-05-22T09:15:48.154Z,27.39
2023-05-22T09:18:34.668Z,27.49
2023-05-22T09:21:30.152Z,27.52
2023-05-22T09:24:17.423Z,27.56
2023-05-22T09:27:06.718Z,27.52
2023-05-22T09:29:59.127Z,27.48
2023-05-22T09:32:48.797Z,27.39
2023-05-22T09:35:39.579Z,27.46
2023-05-22T09:38:28.804Z,27.58
2023-05-22T09:41:22.298Z,27.62
2023-05-22T09:44:16.094Z,27.71
2023-05-22T09:47:03.815Z,27.75
2023-05-22T09:49:50.131Z,27.71
2023-05-22T09:52:37.775Z,27.74
2023-05-22T09:55:24.861Z,27.86
2023-05-22T09:58:13.768Z,27.89
2023-05-22T10:01:01.526Z,27.77
2023-05-22T10:03:54.392Z,27.67
2023-05-22T10:06:43.128Z,27.52
2023-05-22T10:09:36.078Z,27.57
2023-05-22T10:12:23.567Z,27.67
2023-05-22T10:15:13.136Z,27.72
2023-05-22T10:18:00.853Z,27.81
2023-05-22T10:20:48.441Z,27.96
2023-05-22T10:23:35.204Z,28.01
2023-05-22T10:26:23.040Z,28.11
2023-05-22T10:29:14.927Z,28.23
2023-05-22T10:32:08.149Z,28.34
2023-05-22T10:35:16.685Z,28.39
2023-05-22T10:38:34.044Z,28.32
2023-05-22T10:41:21.380Z,28.24
2023-05-22T10:44:08.205Z,28.19
2023-05-22T10:46:54.842Z,28.01
2023-05-22T10:49:46.869Z,28.21
2023-05-22T10:52:34.587Z,28.35
2023-05-22T10:55:22.681Z,28.47
2023-05-22T10:58:16.492Z,28.57
2023-05-22T11:01:19.391Z,28.61
2023-05-22T11:04:08.211Z,28.53
2023-05-22T11:07:06.806Z,28.45
2023-05-22T11:10:00.216Z,28.24
2023-05-22T11:12:46.719Z,28.02
2023-05-22T11:15:33.485Z,28.07
2023-05-22T11:18:20.011Z,28.17
2023-05-22T11:21:09.998Z,28.23
2023-05-22T11:24:01.124Z,28.35
2023-05-22T11:27:02.688Z,28.51
2023-05-22T11:29:49.874Z,28.64
2023-05-22T11:32:41.045Z,28.72
2023-05-22T11:35:28.695Z,28.77
2023-05-22T11:38:15.768Z,28.55
2023-05-22T11:41:02.285Z,28.30
2023-05-22T11:43:48.890Z,28.13
2023-05-22T11:46:35.713Z,27.98
2023-05-22T11:49:24.122Z,27.89
2023-05-22T11:52:11.158Z,28.04
2023-05-22T11:54:57.976Z,28.43
2023-05-22T11:57:44.509Z,28.71
2023-05-22T12:00:31.797Z,28.67
2023-05-22T12:03:18.708Z,28.37
2023-05-22T12:06:05.723Z,28.24
2023-05-22T12:08:52.466Z,28.08
2023-05-22T12:11:39.337Z,28.15
2023-05-22T12:14:31.330Z,28.49
2023-05-22T12:17:18.168Z,29.35
2023-05-22T12:20:06.296Z,30.62
2023-05-22T12:22:56.241Z,31.75
2023-05-22T12:25:43.259Z,32.68
2023-05-22T12:28:32.533Z,33.56
2023-05-22T12:31:25.396Z,34.27
2023-05-22T12:34:12.366Z,35.04
2023-05-22T12:36:59.057Z,35.60
2023-05-22T12:39:59.835Z,36.04
2023-05-22T12:42:46.301Z,36.41
2023-05-22T12:45:33.066Z,36.62
2023-05-22T12:48:19.968Z,37.17
2023-05-22T12:51:06.508Z,37.59
2023-05-22T12:53:53.061Z,37.89
2023-05-22T12:56:39.518Z,37.68
2023-05-22T12:59:26.069Z,37.59
2023-05-22T13:02:12.408Z,37.51
2023-05-22T13:04:59.207Z,38.12
2023-05-22T13:07:45.700Z,37.30
2023-05-22T13:10:32.246Z,35.75
2023-05-22T13:13:18.527Z,35.31
2023-05-22T13:16:05.306Z,34.42
2023-05-22T13:18:51.696Z,34.79
2023-05-22T13:21:38.165Z,36.19
2023-05-22T13:24:24.550Z,37.26
2023-05-22T13:27:11.242Z,37.03
2023-05-22T13:29:57.920Z,35.64
2023-05-22T13:32:44.658Z,35.72
2023-05-22T13:35:31.243Z,34.86
2023-05-22T13:38:17.697Z,35.54
2023-05-22T13:41:04.373Z,37.13
2023-05-22T13:43:51.266Z,38.47
2023-05-22T13:46:40.616Z,38.82
2023-05-22T13:49:28.027Z,38.12
2023-05-22T13:52:14.530Z,38.28
2023-05-22T13:55:01.129Z,38.99
2023-05-22T13:57:47.472Z,37.53
2023-05-22T14:00:33.953Z,35.95
2023-05-22T14:03:20.877Z,34.64
2023-05-22T14:06:07.673Z,33.72
2023-05-22T14:08:54.551Z,32.98
2023-05-22T14:11:41.121Z,32.66
2023-05-22T14:14:27.770Z,34.41
2023-05-22T14:17:14.306Z,36.65
2023-05-22T14:20:01.255Z,38.28
2023-05-22T14:22:57.170Z,39.44
2023-05-22T14:25:45.244Z,38.63
2023-05-22T14:28:32.241Z,36.84
2023-05-22T14:31:18.973Z,35.21
2023-05-22T14:34:05.986Z,33.70
2023-05-22T14:36:52.766Z,32.63
2023-05-22T14:39:39.465Z,31.97
2023-05-22T14:42:25.883Z,31.92
2023-05-22T14:45:12.815Z,34.28
2023-05-22T14:47:59.096Z,36.62
2023-05-22T14:50:47.539Z,38.01
2023-05-22T14:53:34.105Z,36.73
2023-05-22T14:56:21.672Z,35.91
2023-05-22T14:59:08.190Z,35.08
2023-05-22T15:01:54.677Z,34.42
2023-05-22T15:04:41.299Z,36.34
2023-05-22T15:07:39.648Z,37.15
2023-05-22T15:10:30.178Z,37.13
2023-05-22T15:13:16.643Z,38.40
2023-05-22T15:16:03.228Z,39.44
2023-05-22T15:18:50.192Z,39.81
2023-05-22T15:21:36.754Z,37.88
2023-05-22T15:24:23.395Z,36.13
2023-05-22T15:27:12.933Z,34.69
2023-05-22T15:29:59.275Z,33.44
2023-05-22T15:32:45.902Z,32.53
2023-05-22T15:35:32.376Z,31.78
2023-05-22T15:38:20.161Z,31.16
2023-05-22T15:41:06.933Z,30.67
2023-05-22T15:43:53.535Z,30.28
2023-05-22T15:46:39.874Z,30.14
2023-05-22T15:49:27.922Z,30.14
2023-05-22T15:52:16.601Z,30.14
2023-05-22T15:55:03.108Z,30.22
2023-05-22T15:57:49.687Z,29.89
2023-05-22T16:00:41.062Z,29.75
2023-05-22T16:03:28.120Z,29.71
2023-05-22T16:06:14.651Z,29.37
2023-05-22T16:09:01.148Z,29.25
2023-05-22T16:11:47.921Z,30.20
2023-05-22T16:14:34.287Z,30.42
2023-05-22T16:17:20.930Z,31.22
2023-05-22T16:20:08.561Z,30.82
2023-05-22T16:22:55.326Z,30.72
2023-05-22T16:25:42.099Z,31.54
2023-05-22T16:28:29.103Z,33.09
2023-05-22T16:31:19.354Z,32.98
2023-05-22T16:34:06.027Z,32.03
2023-05-22T16:36:52.577Z,31.20
2023-05-22T16:39:41.409Z,30.48
2023-05-22T16:42:28.354Z,29.98
2023-05-22T16:45:14.974Z,30.44
2023-05-22T16:48:01.795Z,30.42
2023-05-22T16:50:48.538Z,30.16
2023-05-22T16:53:38.200Z,29.84
2023-05-22T16:56:24.985Z,29.33
2023-05-22T16:59:11.591Z,28.85
2023-05-22T17:01:58.365Z,28.49
2023-05-22T17:04:44.966Z,29.57
2023-05-22T17:07:31.745Z,30.78
2023-05-22T17:10:18.059Z,30.63
2023-05-22T17:13:04.923Z,29.69
2023-05-22T17:15:51.475Z,28.96
2023-05-22T17:18:38.097Z,28.39
2023-05-22T17:21:24.978Z,27.92
2023-05-22T17:24:14.676Z,27.51
2023-05-22T17:27:03.425Z,27.17
2023-05-22T17:29:50.010Z,26.84
2023-05-22T17:32:36.692Z,26.55
2023-05-22T17:35:23.435Z,26.33
2023-05-22T17:38:10.112Z,26.10
2023-05-22T17:40:56.557Z,25.89
2023-05-22T17:43:42.969Z,25.91
2023-05-22T17:46:29.576Z,25.76
2023-05-22T17:49:16.241Z,25.61
2023-05-22T17:52:03.196Z,25.45
2023-05-22T17:54:50.644Z,25.30
2023-05-22T17:57:37.312Z,25.12
2023-05-22T18:00:23.832Z,24.95
2023-05-22T18:03:10.828Z,24.83
2023-05-22T18:05:57.666Z,24.69
2023-05-22T18:08:43.899Z,24.56
2023-05-22T18:11:30.615Z,24.43
2023-05-22T18:14:17.095Z,24.28
2023-05-22T18:17:04.595Z,24.12
2023-05-22T18:19:51.143Z,23.94
2023-05-22T18:22:39.258Z,23.78
2023-05-22T18:25:25.725Z,23.59
2023-05-22T18:28:12.562Z,23.41
2023-05-22T18:30:59.422Z,23.22
2023-05-22T18:33:46.681Z,23.02
2023-05-22T18:36:34.112Z,22.82
2023-05-22T18:39:20.886Z,22.63
2023-05-22T18:42:07.780Z,22.45
2023-05-22T18:44:53.950Z,22.26
2023-05-22T18:47:41.274Z,22.08
2023-05-22T18:50:27.690Z,21.88
2023-05-22T18:53:14.756Z,21.66
2023-05-22T18:56:01.336Z,21.46
2023-05-22T18:58:47.632Z,21.25
2023-05-22T19:01:34.261Z,21.07
2023-05-22T19:04:21.098Z,20.86
2023-05-22T19:07:07.981Z,20.74
2023-05-22T19:09:54.568Z,20.58
2023-05-22T19:12:41.393Z,20.45
2023-05-22T19:15:27.585Z,20.31
2023-05-22T19:18:13.942Z,20.16
2023-05-22T19:21:00.480Z,19.99
2023-05-22T19:23:48.456Z,19.83
2023-05-22T19:26:35.347Z,19.65
2023-05-22T19:29:21.979Z,19.46
2023-05-22T19:32:08.359Z,19.30
2023-05-22T19:34:54.746Z,19.14
2023-05-22T19:37:41.224Z,19.00
2023-05-22T19:40:27.885Z,18.87
2023-05-22T19:43:14.423Z,18.75
2023-05-22T19:46:00.999Z,18.62
2023-05-22T19:48:47.719Z,18.49
2023-05-22T19:51:34.018Z,18.30
2023-05-22T19:54:20.764Z,18.25
2023-05-22T19:57:07.290Z,18.14
2023-05-22T19:59:54.429Z,18.06
2023-05-22T20:02:40.962Z,17.97
2023-05-22T20:05:27.598Z,17.86
2023-05-22T20:08:14.326Z,17.79
2023-05-22T20:11:00.600Z,17.70
2023-05-22T20:13:46.957Z,17.59
2023-05-22T20:16:33.586Z,17.47
2023-05-22T20:19:20.513Z,17.39
2023-05-22T20:22:07.213Z,17.30
2023-05-22T20:24:54.316Z,17.29
2023-05-22T20:27:40.938Z,17.23
2023-05-22T20:30:27.689Z,17.17
2023-05-22T20:33:14.469Z,17.10
2023-05-22T20:36:01.517Z,17.06
2023-05-22T20:38:48.608Z,17.02
2023-05-22T20:41:34.890Z,16.94
2023-05-22T20:44:24.769Z,16.91
2023-05-22T20:47:10.976Z,16.87
2023-05-22T20:49:57.659Z,16.79
2023-05-22T20:52:45.857Z,16.73
2023-05-22T20:55:35.729Z,16.65
2023-05-22T20:58:23.253Z,16.54
2023-05-22T21:01:09.956Z,16.46
2023-05-22T21:03:56.891Z,16.41
2023-05-22T21:06:43.579Z,16.39
2023-05-22T21:09:30.201Z,16.36
2023-05-22T21:12:16.832Z,16.31
2023-05-22T21:15:03.184Z,16.18
2023-05-22T21:17:49.462Z,16.09
2023-05-22T21:20:36.093Z,16.01
2023-05-22T21:23:24.475Z,15.91
2023-05-22T21:26:11.431Z,15.84
2023-05-22T21:28:57.950Z,15.80
2023-05-22T21:31:44.767Z,15.75
2023-05-22T21:34:31.351Z,15.67
2023-05-22T21:37:17.847Z,15.58
2023-05-22T21:40:04.758Z,15.49
2023-05-22T21:42:51.489Z,15.45
2023-05-22T21:45:38.914Z,15.41
2023-05-22T21:48:25.582Z,15.33
2023-05-22T21:51:12.210Z,15.25
2023-05-22T21:53:58.870Z,15.18
2023-05-22T21:56:45.489Z,15.17
2023-05-22T21:59:32.177Z,15.16
2023-05-22T22:02:18.907Z,15.13
2023-05-22T22:05:06.441Z,15.07
2023-05-22T22:07:52.762Z,14.97
2023-05-22T22:10:39.671Z,14.88
2023-05-22T22:13:26.500Z,14.81
2023-05-22T22:16:12.918Z,14.73
2023-05-22T22:19:01.196Z,14.70
2023-05-22T22:21:48.223Z,14.64
2023-05-22T22:24:34.457Z,14.59
2023-05-22T22:27:21.006Z,14.51
2023-05-22T22:30:08.937Z,14.42
2023-05-22T22:32:55.776Z,14.33
2023-05-22T22:35:43.174Z,14.25
2023-05-22T22:38:32.856Z,14.19
2023-05-22T22:41:19.314Z,14.10
2023-05-22T22:44:06.058Z,14.05
2023-05-22T22:46:52.529Z,14.03
2023-05-22T22:49:39.033Z,13.98
2023-05-22T22:52:25.558Z,13.96
2023-05-22T22:55:12.259Z,13.93
2023-05-22T22:57:59.695Z,13.88
2023-05-22T23:00:46.179Z,13.88
2023-05-22T23:03:33.075Z,13.83
2023-05-22T23:06:19.518Z,13.78
2023-05-22T23:09:06.109Z,13.73
2023-05-22T23:11:52.935Z,13.68
2023-05-22T23:14:39.728Z,13.62
2023-05-22T23:17:27.540Z,13.54
2023-05-22T23:20:14.383Z,13.46
2023-05-22T23:23:01.085Z,13.46
2023-05-22T23:25:47.830Z,13.49
2023-05-22T23:28:34.288Z,13.49
2023-05-22T23:31:26.255Z,13.49
2023-05-22T23:34:13.148Z,13.44
2023-05-22T23:36:59.670Z,13.36
2023-05-22T23:39:46.099Z,13.30
2023-05-22T23:42:32.911Z,13.19
2023-05-22T23:45:19.546Z,13.18
2023-05-22T23:48:05.980Z,13.16
2023-05-22T23:50:52.354Z,13.13
2023-05-22T23:53:38.949Z,13.08
2023-05-22T23:56:25.175Z,13.03
2023-05-22T23:59:12.018Z,12.97
